Time;durP1;ratioP1;P1;durP2;ratioP2;P2;SDS_P1;SDS_P2;PMS_P1;PMS_P2;Temp;Humidity;BMP_temperature;BMP_pressure;BME280_temperature;BME280_humidity;BME280_pressure;Samples;Min_cycle;Max_cycle;Signal;HPM_P1;HPM_P2
2020/12/03 00:01:39;;;;;;;122.72;50.17;;;;;;;-2.39;79.56;100295.33;127531;1099;26394;-59
2020/12/03 00:04:18;;;;;;;127.93;50.83;;;;;;;-2.44;78.75;100299.23;126479;1099;23395;-58
2020/12/03 00:06:54;;;;;;;122.30;47.33;;;;;;;-2.43;79.50;100302.75;126382;1098;23886;-58
2020/12/03 00:09:25;;;;;;;108.57;45.23;;;;;;;-2.43;78.47;100303.53;126623;1099;23300;-60
2020/12/03 00:12:08;;;;;;;115.23;48.73;;;;;;;-2.46;78.59;100294.16;126425;1098;23458;-58
2020/12/03 00:14:40;;;;;;;107.50;43.63;;;;;;;-2.44;78.61;100293.00;127065;1098;23507;-57
2020/12/03 00:17:13;;;;;;;115.30;47.50;;;;;;;-2.45;78.76;100294.94;126982;1099;26838;-60
2020/12/03 00:19:44;;;;;;;116.60;48.70;;;;;;;-2.40;78.51;100288.31;126778;1099;26836;-60
2020/12/03 00:22:15;;;;;;;116.20;48.20;;;;;;;-2.40;78.81;100271.91;126355;1098;26805;-60
2020/12/03 00:24:45;;;;;;;106.63;43.33;;;;;;;-2.45;79.25;100281.28;128601;1099;23326;-60
2020/12/03 00:27:15;;;;;;;93.87;37.70;;;;;;;-2.47;78.67;100291.82;126888;1099;23511;-58
2020/12/03 00:29:45;;;;;;;103.60;40.83;;;;;;;-2.54;78.53;100280.87;126435;1098;23294;-59
2020/12/03 00:32:15;;;;;;;105.80;42.62;;;;;;;-2.59;78.35;100284.01;126935;1098;23358;-58
2020/12/03 00:34:44;;;;;;;114.45;45.92;;;;;;;-2.60;78.62;100285.17;126681;1098;23406;-60
2020/12/03 00:37:14;;;;;;;112.40;44.23;;;;;;;-2.61;79.40;100272.69;126678;1098;23759;-61
2020/12/03 00:39:44;;;;;;;111.67;44.53;;;;;;;-2.59;79.39;100268.38;126921;1099;24982;-58
2020/12/03 00:42:13;;;;;;;111.90;45.30;;;;;;;-2.59;79.16;100257.44;126563;1098;23430;-60
2020/12/03 00:44:42;;;;;;;116.93;46.63;;;;;;;-2.59;79.14;100260.17;126579;1099;26766;-59
2020/12/03 00:47:11;;;;;;;122.95;49.30;;;;;;;-2.56;79.03;100269.55;126548;1099;23357;-58
2020/12/03 00:49:40;;;;;;;113.47;45.77;;;;;;;-2.57;79.23;100274.26;126607;1098;23350;-60
2020/12/03 00:52:09;;;;;;;116.67;46.30;;;;;;;-2.57;79.52;100268.79;126649;1098;23278;-58
2020/12/03 00:54:38;;;;;;;115.03;44.93;;;;;;;-2.54;78.79;100276.19;126572;1098;23305;-61
2020/12/03 00:57:07;;;;;;;110.10;44.73;;;;;;;-2.55;79.13;100266.45;126593;1098;23373;-57
2020/12/03 00:59:39;;;;;;;104.53;44.13;;;;;;;-2.54;78.98;100268.00;126666;1099;23282;-60
2020/12/03 01:02:11;;;;;;;108.47;43.13;;;;;;;-2.57;79.03;100268.79;126638;1098;26789;-57
2020/12/03 01:04:42;;;;;;;102.10;43.53;;;;;;;-2.58;79.64;100263.69;126703;1098;23343;-56
2020/12/03 01:07:12;;;;;;;104.83;42.27;;;;;;;-2.60;78.96;100266.83;126579;1098;28979;-56
2020/12/03 01:09:42;;;;;;;101.60;43.73;;;;;;;-2.58;79.50;100258.23;126734;1098;25012;-58
2020/12/03 01:12:12;;;;;;;111.32;42.40;;;;;;;-2.60;79.70;100253.16;126689;1099;23332;-55
2020/12/03 01:14:41;;;;;;;106.70;43.55;;;;;;;-2.60;79.23;100250.42;126783;1098;23326;-57
2020/12/03 01:17:13;;;;;;;107.00;43.83;;;;;;;-2.62;78.91;100260.18;126642;1098;23316;-60
2020/12/03 01:19:43;;;;;;;103.10;43.63;;;;;;;-2.61;79.09;100259.02;126752;1098;25088;-57
2020/12/03 01:22:12;;;;;;;105.72;46.18;;;;;;;-2.62;79.49;100257.45;126714;1098;26299;-61
2020/12/03 01:24:43;;;;;;;108.27;44.00;;;;;;;-2.60;79.66;100246.91;126708;1098;23296;-58
2020/12/03 01:27:13;;;;;;;112.63;44.37;;;;;;;-2.58;79.41;100242.62;126672;1098;23357;-60
2020/12/03 01:29:44;;;;;;;105.93;43.37;;;;;;;-2.58;79.50;100241.83;126792;1098;23356;-55
2020/12/03 01:32:13;;;;;;;106.90;43.70;;;;;;;-2.58;78.81;100237.16;126675;1099;23357;-58
2020/12/03 01:34:43;;;;;;;115.55;45.45;;;;;;;-2.58;79.62;100231.69;126843;1098;23455;-62
2020/12/03 01:37:15;;;;;;;106.13;42.77;;;;;;;-2.57;79.33;100232.47;126582;1099;23373;-60
2020/12/03 01:39:46;;;;;;;121.60;47.37;;;;;;;-2.54;78.99;100227.00;126852;1098;28937;-56
2020/12/03 01:42:16;;;;;;;110.67;45.33;;;;;;;-2.48;79.67;100219.17;126771;1098;23431;-57
2020/12/03 01:44:47;;;;;;;122.43;46.33;;;;;;;-2.47;79.50;100210.60;126670;1098;23360;-58
2020/12/03 01:47:27;;;;;;;116.87;46.10;;;;;;;-2.44;79.45;100216.46;126815;1098;23317;-61
2020/12/03 01:49:57;;;;;;;85.30;36.80;;;;;;;-2.46;79.26;100216.83;126920;1099;23918;-60
2020/12/03 01:52:28;;;;;;;121.40;51.15;;;;;;;-2.48;78.92;100205.51;126906;1093;23511;-59
2020/12/03 01:54:57;;;;;;;121.07;47.63;;;;;;;-2.49;78.85;100201.23;126665;1099;23367;-59
2020/12/03 01:57:50;;;;;;;119.90;49.15;;;;;;;-2.50;79.11;100184.04;126579;1099;23311;-58
2020/12/03 02:00:21;;;;;;;118.53;47.73;;;;;;;-2.47;79.27;100182.48;126590;1099;23299;-58
2020/12/03 02:02:52;;;;;;;121.23;49.73;;;;;;;-2.44;78.98;100178.19;126675;1098;24863;-58
2020/12/03 02:05:25;;;;;;;119.10;45.27;;;;;;;-2.40;78.95;100181.70;126760;1098;26769;-59
2020/12/03 02:07:55;;;;;;;130.67;51.87;;;;;;;-2.40;78.59;100170.77;126758;1099;23360;-58
2020/12/03 02:10:27;;;;;;;127.83;49.03;;;;;;;-2.41;79.38;100171.92;126697;1099;23328;-55
2020/12/03 02:12:56;;;;;;;127.43;50.73;;;;;;;-2.42;79.34;100157.47;126783;1098;23518;-57
2020/12/03 02:15:25;;;;;;;130.77;49.93;;;;;;;-2.43;79.03;100166.06;126482;1098;26810;-59
2020/12/03 02:17:54;;;;;;;132.40;52.97;;;;;;;-2.46;78.42;100146.55;126762;1098;26791;-58
2020/12/03 02:20:23;;;;;;;127.70;52.35;;;;;;;-2.44;79.54;100153.59;126671;1098;23310;-59
2020/12/03 02:22:52;;;;;;;131.83;55.93;;;;;;;-2.45;78.86;100147.33;126599;1098;23419;-59
2020/12/03 02:25:22;;;;;;;127.45;52.43;;;;;;;-2.41;79.59;100147.31;126611;1098;23371;-57
2020/12/03 02:27:51;;;;;;;132.60;53.07;;;;;;;-2.40;78.74;100148.89;126589;1098;23356;-62
2020/12/03 02:30:20;;;;;;;131.30;48.87;;;;;;;-2.42;79.49;100143.80;126735;1098;23302;-57
2020/12/03 02:32:49;;;;;;;121.10;51.40;;;;;;;-2.42;79.05;100138.33;126975;1098;25067;-61
2020/12/03 02:35:18;;;;;;;130.67;50.10;;;;;;;-2.40;79.04;100137.95;126608;1099;23362;-57
2020/12/03 02:37:47;;;;;;;128.73;50.90;;;;;;;-2.40;79.09;100140.69;126605;1098;23312;-57
2020/12/03 02:40:17;;;;;;;127.00;49.20;;;;;;;-2.40;78.66;100144.18;126606;1099;23372;-57
2020/12/03 02:42:46;;;;;;;128.50;53.50;;;;;;;-2.39;78.74;100128.56;126639;1098;23450;-57
2020/12/03 02:45:16;;;;;;;123.50;51.33;;;;;;;-2.39;78.97;100131.30;126676;1099;23310;-54
2020/12/03 02:47:45;;;;;;;129.83;52.10;;;;;;;-2.37;78.68;100137.16;126852;1098;23418;-59
2020/12/03 02:50:15;;;;;;;127.87;51.87;;;;;;;-2.32;79.17;100139.50;126643;1098;28969;-58
2020/12/03 02:52:44;;;;;;;115.63;49.37;;;;;;;-2.29;78.37;100147.68;126829;1099;23395;-58
2020/12/03 02:55:13;;;;;;;122.77;48.40;;;;;;;-2.29;78.69;100138.69;126559;1098;25069;-60
2020/12/03 02:57:42;;;;;;;126.85;50.25;;;;;;;-2.31;79.17;100141.04;126621;1098;26216;-56
2020/12/03 03:00:12;;;;;;;131.87;51.67;;;;;;;-2.32;79.27;100140.28;126566;1098;23317;-60
2020/12/03 03:02:41;;;;;;;135.28;53.75;;;;;;;-2.32;78.56;100136.77;126840;1098;23385;-57
2020/12/03 03:05:11;;;;;;;148.45;59.85;;;;;;;-2.33;79.02;100138.70;126669;1099;28348;-58
2020/12/03 03:07:40;;;;;;;132.17;53.63;;;;;;;-2.36;79.15;100125.84;126649;1099;23360;-58
2020/12/03 03:10:09;;;;;;;141.20;55.03;;;;;;;-2.35;79.17;100132.07;126727;1093;26792;-58
2020/12/03 03:12:38;;;;;;;135.50;54.30;;;;;;;-2.37;78.57;100140.67;126605;1098;27806;-55
2020/12/03 03:15:07;;;;;;;132.30;49.60;;;;;;;-2.39;78.51;100134.03;126813;1098;23267;-60
2020/12/03 03:17:37;;;;;;;131.50;51.13;;;;;;;-2.40;78.52;100140.69;126673;1098;23368;-56
2020/12/03 03:20:06;;;;;;;145.60;55.13;;;;;;;-2.45;79.44;100133.66;126776;1098;23342;-57
2020/12/03 03:22:36;;;;;;;136.00;54.80;;;;;;;-2.41;78.84;100136.38;126716;1098;23325;-59
2020/12/03 03:25:05;;;;;;;147.43;56.07;;;;;;;-2.41;79.31;100126.23;126675;1099;25003;-58
2020/12/03 03:27:35;;;;;;;136.23;55.27;;;;;;;-2.39;79.30;100118.42;126800;1099;26312;-58
2020/12/03 03:30:06;;;;;;;152.43;55.20;;;;;;;-2.40;79.45;100116.09;126674;1098;23322;-61
2020/12/03 03:32:35;;;;;;;155.12;59.60;;;;;;;-2.36;78.94;100105.92;126637;1098;23357;-57
2020/12/03 03:35:05;;;;;;;136.77;54.33;;;;;;;-2.36;79.39;100100.45;126640;1098;27796;-58
2020/12/03 03:37:35;;;;;;;156.90;58.08;;;;;;;-2.36;79.61;100108.66;126616;1098;23267;-58
2020/12/03 03:40:06;;;;;;;152.45;57.58;;;;;;;-2.37;79.15;100096.14;126837;1098;27860;-58
2020/12/03 03:42:35;;;;;;;137.20;55.33;;;;;;;-2.37;78.79;100102.41;126680;1099;23309;-56
2020/12/03 03:45:05;;;;;;;154.80;61.13;;;;;;;-2.39;78.70;100091.08;126582;1099;27833;-60
2020/12/03 03:47:35;;;;;;;146.20;58.43;;;;;;;-2.34;79.77;100092.64;126669;1098;26804;-56
2020/12/03 03:50:05;;;;;;;152.90;58.93;;;;;;;-2.32;78.69;100104.73;127047;1098;23317;-61
2020/12/03 03:52:34;;;;;;;152.12;58.28;;;;;;;-2.31;79.33;100095.34;126870;1099;25134;-59
2020/12/03 03:55:04;;;;;;;145.60;53.77;;;;;;;-2.31;78.83;100086.36;126551;1098;23377;-58
2020/12/03 03:57:34;;;;;;;147.60;58.65;;;;;;;-2.31;79.56;100080.89;126697;1098;24819;-56
2020/12/03 04:00:04;;;;;;;153.10;56.55;;;;;;;-2.28;79.15;100077.37;126690;1098;23317;-57
2020/12/03 04:02:33;;;;;;;132.80;53.63;;;;;;;-2.31;79.01;100081.68;126583;1098;23305;-58
2020/12/03 04:05:03;;;;;;;145.47;55.77;;;;;;;-2.31;79.49;100068.01;126699;1098;23845;-60
2020/12/03 04:07:32;;;;;;;140.13;55.67;;;;;;;-2.28;79.43;100066.44;126739;1098;23456;-59
2020/12/03 04:10:01;;;;;;;144.45;54.60;;;;;;;-2.26;79.76;100051.20;126635;1098;23305;-58
2020/12/03 04:12:31;;;;;;;145.63;55.13;;;;;;;-2.23;79.36;100044.92;126652;1099;23817;-59
2020/12/03 04:15:00;;;;;;;139.55;57.53;;;;;;;-2.22;78.94;100041.03;126736;1098;23441;-58
2020/12/03 04:17:31;;;;;;;134.40;53.00;;;;;;;-2.22;79.38;100027.36;126676;1098;23320;-56
2020/12/03 04:20:07;;;;;;;150.40;53.20;;;;;;;-2.20;79.08;100025.00;126592;1098;23360;-57
2020/12/03 04:22:36;;;;;;;132.20;53.40;;;;;;;-2.18;79.35;100016.39;126753;1098;23327;-59
2020/12/03 04:25:08;;;;;;;144.70;53.77;;;;;;;-2.14;78.95;100020.67;126690;1098;26927;-59
2020/12/03 04:27:37;;;;;;;131.07;52.57;;;;;;;-2.13;78.71;100024.95;126678;1099;23365;-57
2020/12/03 04:30:09;;;;;;;138.10;53.52;;;;;;;-2.15;79.24;100026.55;126702;1098;28375;-60
2020/12/03 04:32:39;;;;;;;137.60;56.57;;;;;;;-2.14;78.71;100028.09;126798;1098;24339;-61
2020/12/03 04:35:09;;;;;;;140.07;53.10;;;;;;;-2.15;79.40;100026.55;126646;1099;25008;-61
2020/12/03 04:37:39;;;;;;;140.77;53.78;;;;;;;-2.15;79.56;100032.02;126652;1099;25185;-59
2020/12/03 04:40:19;;;;;;;148.77;53.97;;;;;;;-2.14;79.37;100030.83;126671;1099;23387;-58
2020/12/03 04:42:48;;;;;;;134.15;52.30;;;;;;;-2.16;78.92;100027.70;126560;1098;23460;-63
2020/12/03 04:45:30;;;;;;;138.55;51.80;;;;;;;-2.17;79.00;100034.38;126617;1098;26817;-61
2020/12/03 04:48:16;;;;;;;135.50;54.03;;;;;;;-2.12;79.58;100025.73;126612;1098;23302;-59
2020/12/03 04:50:54;;;;;;;136.13;52.17;;;;;;;-2.08;79.75;100021.02;126489;1098;23445;-59
2020/12/03 04:53:50;;;;;;;133.53;53.23;;;;;;;-2.09;79.38;100016.75;126257;1098;25512;-60
2020/12/03 04:56:28;;;;;;;131.10;52.53;;;;;;;-2.12;79.56;100012.84;126265;1098;23333;-61
2020/12/03 04:59:13;;;;;;;135.10;52.13;;;;;;;-2.09;79.26;100011.27;126258;1098;27779;-59
2020/12/03 05:02:04;;;;;;;135.17;52.10;;;;;;;-2.09;79.50;100012.03;126198;1098;23374;-60
2020/12/03 05:04:45;;;;;;;136.40;48.80;;;;;;;-2.05;79.45;100009.30;126565;1098;23326;-58
2020/12/03 05:07:15;;;;;;;129.30;49.42;;;;;;;-2.07;78.76;100001.47;126640;1098;23278;-60
2020/12/03 05:09:52;;;;;;;142.20;51.90;;;;;;;-2.08;78.45;99999.14;126618;1098;23335;-56
2020/12/03 05:12:27;;;;;;;131.40;54.13;;;;;;;-2.08;79.36;99997.19;126562;1099;23359;-61
2020/12/03 05:15:05;;;;;;;144.15;51.15;;;;;;;-2.06;79.33;99999.52;126332;1098;27754;-59
2020/12/03 05:17:44;;;;;;;140.83;54.37;;;;;;;-2.06;79.11;99992.09;126863;1095;23347;-57
2020/12/03 05:20:40;;;;;;;141.47;52.03;;;;;;;-2.06;79.11;99996.78;126899;1095;23431;-59
2020/12/03 05:23:15;;;;;;;135.70;55.80;;;;;;;-2.06;79.53;99992.09;127007;1095;23322;-59
2020/12/03 05:25:46;;;;;;;136.70;50.30;;;;;;;-2.02;79.40;99989.33;127012;1095;23882;-59
2020/12/03 05:28:33;;;;;;;;;;;;;;;-1.99;78.63;99986.59;126886;1095;23367;-61
2020/12/03 05:31:17;;;;;;;163.87;62.13;;;;;;;-1.99;78.88;99983.08;126933;1095;21493;-60
2020/12/03 05:33:47;;;;;;;136.43;53.83;;;;;;;-1.97;79.23;99967.83;127082;1090;23306;-56
2020/12/03 05:36:22;;;;;;;161.65;60.98;;;;;;;-1.98;78.78;99976.41;127163;1096;23395;-63
2020/12/03 05:38:52;;;;;;;155.93;61.87;;;;;;;-1.96;78.68;99982.26;127067;1095;23323;-57
2020/12/03 05:41:23;;;;;;;151.10;58.55;;;;;;;-1.93;79.32;99982.26;127094;1097;23305;-61
2020/12/03 05:43:53;;;;;;;156.60;60.40;;;;;;;-1.91;78.99;99981.84;127111;1095;23464;-56
2020/12/03 05:46:24;;;;;;;152.47;60.50;;;;;;;-1.90;78.81;99975.18;126634;1096;27833;-58
2020/12/03 05:49:01;;;;;;;153.85;61.05;;;;;;;-1.89;79.34;99974.80;127143;1095;23296;-62
2020/12/03 05:51:33;;;;;;;143.07;55.40;;;;;;;-1.90;79.18;99967.76;127094;1095;23366;-58
2020/12/03 05:54:07;;;;;;;151.50;57.10;;;;;;;-1.92;78.94;99963.86;127083;1095;23395;-58
2020/12/03 05:56:36;;;;;;;146.73;55.07;;;;;;;-1.88;79.37;99964.61;127014;1096;25007;-64
2020/12/03 05:59:19;;;;;;;141.60;56.23;;;;;;;-1.87;78.57;99963.45;126814;1095;23354;-61
2020/12/03 06:02:12;;;;;;;139.67;52.37;;;;;;;-1.84;78.70;99968.09;126369;1095;23317;-60
2020/12/03 06:04:47;;;;;;;142.83;54.30;;;;;;;-1.85;79.17;99961.88;126114;1095;23521;-58
2020/12/03 06:07:42;;;;;;;134.87;52.37;;;;;;;-1.84;78.42;99959.89;130395;1096;23152;-59
2020/12/03 06:10:36;;;;;;;136.57;49.63;;;;;;;-1.90;78.12;99961.50;130422;1095;23191;-60
2020/12/03 06:13:15;;;;;;;144.97;54.53;;;;;;;-1.93;79.18;99954.90;130458;1095;23106;-59
2020/12/03 06:15:50;;;;;;;147.02;53.80;;;;;;;-1.91;79.05;99957.22;130429;1096;23261;-61
2020/12/03 06:18:30;;;;;;;136.60;55.27;;;;;;;-1.90;79.04;99953.30;126964;1096;23366;-61
2020/12/03 06:21:17;;;;;;;145.65;54.35;;;;;;;-1.88;78.96;99957.19;126550;1097;23689;-60
2020/12/03 06:24:12;;;;;;;155.33;56.70;;;;;;;-1.84;78.63;99957.94;126842;1095;23314;-61
2020/12/03 06:27:08;;;;;;;153.60;55.53;;;;;;;-1.77;78.64;99959.84;126486;1095;23534;-61
2020/12/03 06:30:00;;;;;;;161.13;64.40;;;;;;;-1.79;78.43;99954.00;128288;1095;23299;-56
2020/12/03 06:32:48;;;;;;;195.07;79.70;;;;;;;-1.78;78.18;99948.12;126941;1095;23478;-58
2020/12/03 06:35:28;;;;;;;155.23;65.00;;;;;;;-1.77;78.80;99948.91;126875;1090;23374;-58
2020/12/03 06:38:10;;;;;;;153.57;61.60;;;;;;;-1.76;78.63;99953.97;126748;1095;23360;-64
2020/12/03 06:40:42;;;;;;;148.93;55.10;;;;;;;-1.78;78.55;99937.17;126686;1096;26722;-61
2020/12/03 06:43:18;;;;;;;140.80;55.77;;;;;;;-1.74;78.26;99937.17;126860;1095;23354;-61
2020/12/03 06:46:06;;;;;;;149.40;56.80;;;;;;;-1.75;78.81;99938.33;126853;1097;23413;-60
2020/12/03 06:48:51;;;;;;;148.67;63.33;;;;;;;-1.75;78.88;99936.38;126849;1095;23462;-60
2020/12/03 06:51:42;;;;;;;147.53;54.07;;;;;;;-1.76;78.37;99931.32;126427;1095;23281;-60
2020/12/03 06:54:47;;;;;;;143.97;58.70;;;;;;;-1.74;78.73;99929.72;127351;1095;23416;-60
2020/12/03 06:57:54;;;;;;;140.53;54.50;;;;;;;-1.71;78.59;99931.66;126728;1099;28276;-59
2020/12/03 07:00:55;;;;;;;155.30;57.33;;;;;;;-1.72;79.16;99932.82;126153;1098;24944;-60
2020/12/03 07:04:02;;;;;;;145.63;55.10;;;;;;;-1.70;79.11;99941.41;126146;1099;26021;-61
2020/12/03 07:07:11;;;;;;;147.10;55.33;;;;;;;-1.64;79.11;99933.56;126478;1101;23300;-61
2020/12/03 07:10:26;;;;;;;153.10;54.93;;;;;;;-1.63;79.12;99935.09;125884;1101;23325;-60
2020/12/03 07:13:23;;;;;;;147.43;58.13;;;;;;;-1.58;78.36;99931.94;126018;1101;26289;-62
2020/12/03 07:16:20;;;;;;;152.80;56.25;;;;;;;-1.55;79.11;99928.38;125960;1101;23576;-60
2020/12/03 07:19:22;;;;;;;138.97;54.73;;;;;;;-1.52;79.10;99935.01;126136;1102;23323;-59
2020/12/03 07:22:14;;;;;;;145.05;57.35;;;;;;;-1.49;78.40;99934.97;125938;1101;26808;-58
2020/12/03 07:24:47;;;;;;;149.37;54.33;;;;;;;-1.50;78.90;99927.95;125998;1096;25185;-60
2020/12/03 07:28:01;;;;;;;153.20;60.55;;;;;;;-1.47;78.86;99927.16;126365;1101;27434;-61
2020/12/03 07:30:45;;;;;;;151.20;54.17;;;;;;;-1.47;79.16;99932.63;126033;1101;23540;-61
2020/12/03 07:33:28;;;;;;;143.27;54.97;;;;;;;-1.47;78.46;99934.58;126140;1094;23713;-62
2020/12/03 07:36:17;;;;;;;139.87;51.27;;;;;;;-1.47;78.72;99932.63;126030;1099;23746;-59
2020/12/03 07:38:55;;;;;;;143.23;53.47;;;;;;;-1.46;78.48;99939.64;126371;1093;23300;-61
2020/12/03 07:41:28;;;;;;;148.13;55.03;;;;;;;-1.46;79.19;99938.86;126520;1098;23377;-62
2020/12/03 07:44:19;;;;;;;164.70;60.90;;;;;;;-1.45;79.15;99930.27;126654;1095;23378;-60
2020/12/03 07:46:50;;;;;;;151.97;59.07;;;;;;;-1.44;78.59;99939.23;126777;1095;23359;-62
2020/12/03 07:49:43;;;;;;;152.37;59.00;;;;;;;-1.45;78.68;99933.00;126546;1095;23299;-61
2020/12/03 07:52:26;;;;;;;153.97;59.53;;;;;;;-1.45;78.90;99934.95;126819;1095;23583;-60
2020/12/03 07:55:16;;;;;;;138.67;53.63;;;;;;;-1.46;78.65;99934.17;126629;1095;23377;-60
2020/12/03 07:57:55;;;;;;;150.82;57.98;;;;;;;-1.45;78.61;99941.22;126692;1095;23458;-59
2020/12/03 08:00:47;;;;;;;143.33;56.57;;;;;;;-1.45;79.03;99938.48;126705;1095;23415;-61
2020/12/03 08:03:42;;;;;;;150.50;56.10;;;;;;;-1.43;78.56;99932.59;126718;1095;28885;-60
2020/12/03 08:06:20;;;;;;;141.87;55.73;;;;;;;-1.42;78.70;99931.39;126894;1096;23341;-62
2020/12/03 08:08:52;;;;;;;142.00;54.27;;;;;;;-1.39;78.83;99938.80;126939;1095;23341;-60
2020/12/03 08:11:48;;;;;;;145.70;54.67;;;;;;;-1.40;78.97;99929.02;127056;1096;23434;-60
2020/12/03 08:14:42;;;;;;;147.87;56.47;;;;;;;-1.39;78.94;99934.12;126960;1095;23357;-60
2020/12/03 08:17:48;;;;;;;132.50;53.27;;;;;;;-1.37;79.40;99941.91;127797;1095;24029;-60
2020/12/03 08:20:24;;;;;;;139.40;55.27;;;;;;;-1.38;79.83;99946.61;126781;1096;24053;-60
2020/12/03 08:23:07;;;;;;;137.80;56.07;;;;;;;-1.36;79.04;99954.41;126674;1097;23302;-61
2020/12/03 08:25:36;;;;;;;141.83;51.90;;;;;;;-1.39;78.96;99956.02;127355;1095;23432;-60
2020/12/03 08:28:07;;;;;;;140.35;55.67;;;;;;;-1.38;79.29;99948.56;126883;1095;23339;-57
2020/12/03 08:30:35;;;;;;;;;;;;;;;-1.38;79.88;99946.61;126850;1095;23411;-61
2020/12/03 08:33:07;;;;;;;143.13;56.90;;;;;;;-1.38;79.38;99951.30;126770;1095;23125;-62
2020/12/03 08:35:37;;;;;;;142.73;54.43;;;;;;;-1.33;79.65;99953.61;127115;1095;23430;-61
2020/12/03 08:38:07;;;;;;;151.60;55.90;;;;;;;-1.32;79.05;99955.15;126701;1095;23318;-62
2020/12/03 08:40:38;;;;;;;146.15;53.87;;;;;;;-1.32;80.31;99961.41;126807;1096;24796;-62
2020/12/03 08:43:11;;;;;;;148.65;63.40;;;;;;;-1.27;80.02;99952.77;127022;1090;29480;-62
2020/12/03 08:45:47;;;;;;;144.90;59.17;;;;;;;-1.23;79.63;99948.03;126857;1096;23370;-62
2020/12/03 08:48:19;;;;;;;145.40;60.67;;;;;;;-1.20;79.51;99938.98;126666;1095;25014;-61
2020/12/03 08:50:55;;;;;;;147.60;64.00;;;;;;;-1.15;79.72;99938.55;126940;1095;23309;-63
2020/12/03 08:53:28;;;;;;;162.80;65.20;;;;;;;-1.12;79.50;99934.98;126877;1097;23353;-62
2020/12/03 08:56:09;;;;;;;160.95;65.60;;;;;;;-1.12;79.76;99926.02;126824;1097;23299;-60
2020/12/03 08:58:42;;;;;;;167.47;72.43;;;;;;;-1.13;80.18;99927.97;126869;1096;23310;-59
2020/12/03 09:01:13;;;;;;;170.67;66.77;;;;;;;-1.14;79.37;99925.64;126954;1095;23363;-60
2020/12/03 09:03:44;;;;;;;167.33;68.37;;;;;;;-1.13;80.26;99930.70;126304;1097;28201;-60
2020/12/03 09:06:16;;;;;;;152.97;59.30;;;;;;;-1.16;79.65;99923.29;126780;1097;23455;-62
2020/12/03 09:08:46;;;;;;;157.00;61.80;;;;;;;-1.12;79.59;99929.51;127164;1095;23299;-60
2020/12/03 09:11:16;;;;;;;123.27;46.53;;;;;;;-1.12;80.44;99924.03;126585;1097;23355;-62
2020/12/03 09:13:45;;;;;;;146.55;60.60;;;;;;;-1.11;80.06;99916.59;126734;1095;23305;-60
2020/12/03 09:16:16;;;;;;;146.50;60.17;;;;;;;-1.12;80.40;99918.55;126569;1095;23357;-61
2020/12/03 09:18:45;;;;;;;144.77;58.27;;;;;;;-1.10;80.34;99913.47;126891;1095;27755;-62
2020/12/03 09:21:24;;;;;;;152.80;58.40;;;;;;;-1.10;80.14;99905.25;126789;1095;23342;-62
2020/12/03 09:23:55;;;;;;;144.83;62.77;;;;;;;-1.09;80.44;99914.22;126630;1096;27893;-62
2020/12/03 09:26:31;;;;;;;149.43;62.70;;;;;;;-1.07;80.27;99909.90;126680;1095;23413;-61
2020/12/03 09:29:03;;;;;;;157.77;64.57;;;;;;;-1.05;79.92;99915.74;126470;1095;23297;-63
2020/12/03 09:31:35;;;;;;;145.17;61.27;;;;;;;-1.04;80.59;99911.05;126194;1097;25007;-62
2020/12/03 09:34:07;;;;;;;154.60;63.77;;;;;;;-1.01;79.75;99912.95;126704;1096;23305;-63
2020/12/03 09:36:39;;;;;;;159.63;68.50;;;;;;;-1.01;80.18;99894.56;126732;1095;23763;-63
2020/12/03 09:39:10;;;;;;;143.57;63.60;;;;;;;-0.99;80.69;99897.67;126790;1090;23448;-62
2020/12/03 09:41:42;;;;;;;140.00;61.33;;;;;;;-0.98;80.10;99887.49;127073;1095;23318;-62
2020/12/03 09:44:20;;;;;;;138.77;63.53;;;;;;;-0.98;80.64;99876.53;126732;1095;23368;-62
2020/12/03 09:46:51;;;;;;;142.87;63.17;;;;;;;-1.01;79.98;99874.59;126735;1097;25490;-62
2020/12/03 09:49:21;;;;;;;160.20;75.23;;;;;;;-1.00;79.91;99868.73;126713;1090;29795;-62
2020/12/03 09:51:51;;;;;;;134.25;55.85;;;;;;;-0.99;80.56;99862.05;127069;1095;23299;-63
2020/12/03 09:54:21;;;;;;;146.87;61.77;;;;;;;-1.01;80.24;99850.73;126570;1095;23441;-61
2020/12/03 09:56:52;;;;;;;144.28;61.25;;;;;;;-1.00;79.85;99863.25;126643;1095;23378;-62
2020/12/03 09:59:23;;;;;;;160.87;62.57;;;;;;;-1.03;79.90;99846.84;126660;1095;23824;-61
2020/12/03 10:02:24;;;;;;;139.97;56.40;;;;;;;-1.04;80.57;99839.82;126855;1095;26766;-60
2020/12/03 10:05:13;;;;;;;141.67;57.23;;;;;;;-1.02;80.85;99842.92;126172;1098;23635;-62
2020/12/03 10:08:11;;;;;;;134.77;55.77;;;;;;;-1.02;80.46;99838.23;125896;1093;23375;-63
2020/12/03 10:10:52;;;;;;;144.80;57.43;;;;;;;-1.01;80.75;99833.50;126275;1098;23803;-60
2020/12/03 10:13:38;;;;;;;361.93;181.43;;;;;;;-1.02;80.83;99827.27;126090;1099;23417;-61
2020/12/03 10:16:11;;;;;;;148.55;63.60;;;;;;;-0.96;80.38;99822.89;126290;1098;23387;-62
2020/12/03 10:18:49;;;;;;;135.40;57.80;;;;;;;-0.92;80.20;99815.39;126235;1098;23435;-62
2020/12/03 10:21:23;;;;;;;142.90;61.23;;;;;;;-0.91;80.86;99805.97;126239;1099;23496;-62
2020/12/03 10:24:07;;;;;;;141.13;57.73;;;;;;;-0.89;80.34;99813.80;126092;1099;23444;-61
2020/12/03 10:26:50;;;;;;;129.33;53.63;;;;;;;-0.86;80.67;99800.04;126373;1098;26407;-61
2020/12/03 10:29:48;;;;;;;135.27;53.67;;;;;;;-0.84;81.00;99796.88;126360;1098;23592;-61
2020/12/03 10:32:19;;;;;;;141.20;57.80;;;;;;;-0.83;80.56;99787.48;126149;1098;23539;-62
2020/12/03 10:34:51;;;;;;;155.63;58.10;;;;;;;-0.81;80.27;99776.88;126243;1098;27550;-63
2020/12/03 10:37:36;;;;;;;137.30;56.60;;;;;;;-0.79;81.00;99766.28;126340;1098;25030;-61
2020/12/03 10:40:16;;;;;;;136.43;53.27;;;;;;;-0.74;80.55;99760.31;126530;1099;23449;-62
2020/12/03 10:42:51;;;;;;;140.55;55.85;;;;;;;-0.72;80.65;99755.20;126557;1097;23411;-62
2020/12/03 10:45:30;;;;;;;129.20;53.37;;;;;;;-0.70;80.55;99747.33;126469;1095;23287;-60
2020/12/03 10:48:07;;;;;;;127.77;53.80;;;;;;;-0.69;81.06;99737.15;127245;1095;23371;-60
2020/12/03 10:51:00;;;;;;;130.55;51.25;;;;;;;-0.69;80.14;99724.23;127511;1096;23369;-62
2020/12/03 10:53:32;;;;;;;124.73;53.37;;;;;;;-0.67;80.20;99726.55;126722;1095;25064;-61
2020/12/03 10:56:04;;;;;;;127.40;51.55;;;;;;;-0.65;80.80;99721.42;126679;1097;23366;-61
2020/12/03 10:58:41;;;;;;;129.05;52.25;;;;;;;-0.62;80.35;99726.09;127022;1095;23369;-61
2020/12/03 11:01:21;;;;;;;132.87;54.57;;;;;;;-0.60;81.09;99712.73;126834;1095;25076;-59
2020/12/03 11:03:53;;;;;;;130.57;53.93;;;;;;;-0.59;80.36;99712.31;126799;1095;23305;-61
2020/12/03 11:06:28;;;;;;;142.50;57.07;;;;;;;-0.54;80.51;99716.55;126606;1095;23492;-61
2020/12/03 11:08:59;;;;;;;143.20;60.37;;;;;;;-0.46;80.72;99713.28;126905;1095;23360;-62
2020/12/03 11:11:35;;;;;;;137.43;55.03;;;;;;;-0.41;80.37;99717.48;126796;1097;27219;-59
2020/12/03 11:14:10;;;;;;;124.00;51.50;;;;;;;-0.40;80.22;99713.57;126958;1095;27603;-61
2020/12/03 11:16:46;;;;;;;136.73;54.07;;;;;;;-0.39;80.33;99710.40;126741;1095;27406;-61
2020/12/03 11:19:17;;;;;;;120.33;49.37;;;;;;;-0.35;81.04;99699.39;126587;1095;26320;-59
2020/12/03 11:21:48;;;;;;;;;;;;;;;-0.35;80.65;99693.91;126746;1095;23354;-62
2020/12/03 11:24:30;;;;;;;119.47;49.03;;;;;;;-0.34;80.21;99684.47;126598;1095;21701;-61
2020/12/03 11:27:04;;;;;;;135.07;50.10;;;;;;;-0.35;80.92;99677.45;126768;1095;23319;-62
2020/12/03 11:29:37;;;;;;;119.93;50.53;;;;;;;-0.33;80.20;99672.31;126910;1095;25118;-61
2020/12/03 11:32:06;;;;;;;118.93;46.37;;;;;;;-0.32;80.14;99673.86;126873;1095;26802;-59
2020/12/03 11:34:40;;;;;;;121.87;48.83;;;;;;;-0.35;80.46;99672.72;126934;1097;23330;-60
2020/12/03 11:37:10;;;;;;;124.43;47.97;;;;;;;-0.32;80.83;99662.88;126977;1095;23432;-59
2020/12/03 11:39:40;;;;;;;116.20;44.25;;;;;;;-0.32;80.72;99665.63;126853;1096;23477;-59